JBU574 TNCA-KBOS
Flight info
| Callsign | JBU574 |
|---|---|
| Flight time | 5h 2m |
| Altitude | 35000 |
| Route | BEROX1F BEROX DCT VITOB UL450 SEKAR/N0466F340 A554 TAANA/N0464F350 L450 HAGIT/N0464F340 L452 LNHOM/M079F340 L452 KASAR/M079F360 L452 OXANA/N0458F360 AR8 ECG/N0453F370 DCT JAMIE Q133 JFK ROBUC3 |
| Aircraft | A320/M-SDE3FGHIRWY/LB1 |
Departure
| Time | 2026-05-06 12:56 |
|---|---|
| Airport | Queen Beatrix International Airport (TNCA) |
Arrival
| Time | 2026-05-06 17:59 |
|---|---|
| Airport | Boston Logan International Airport (KBOS) |
| Time | Latitude | Longitude | Altitude | Speed | Heading |
|---|---|---|---|---|---|
| 2026-05-06 12:05 | 12.50297 | -70.00869 | 47 ft | 0 kts | 13° |
| 2026-05-06 12:44 | 12.50291 | -70.00871 | 46 ft | 4 kts | 12° |
| 2026-05-06 12:44 | 12.50265 | -70.00874 | 44 ft | 4 kts | 357° |
| 2026-05-06 12:44 | 12.50239 | -70.00869 | 45 ft | 4 kts | 334° |
| 2026-05-06 12:45 | 12.50231 | -70.00865 | 44 ft | 0 kts | 332° |
| 2026-05-06 12:48 | 12.50232 | -70.00871 | 45 ft | 1 kts | 283° |
| 2026-05-06 12:48 | 12.50232 | -70.00900 | 46 ft | 6 kts | 271° |
| 2026-05-06 12:48 | 12.50237 | -70.00959 | 46 ft | 10 kts | 283° |
| 2026-05-06 12:49 | 12.50258 | -70.01041 | 46 ft | 14 kts | 284° |
| 2026-05-06 12:49 | 12.50230 | -70.01137 | 47 ft | 15 kts | 257° |
| 2026-05-06 12:49 | 12.50254 | -70.01253 | 46 ft | 17 kts | 284° |
| 2026-05-06 12:49 | 12.50280 | -70.01367 | 46 ft | 16 kts | 284° |
| 2026-05-06 12:50 | 12.50305 | -70.01473 | 46 ft | 15 kts | 284° |
| 2026-05-06 12:50 | 12.50330 | -70.01574 | 46 ft | 14 kts | 283° |
| 2026-05-06 12:50 | 12.50352 | -70.01671 | 46 ft | 14 kts | 283° |
| 2026-05-06 12:50 | 12.50374 | -70.01765 | 45 ft | 13 kts | 283° |
| 2026-05-06 12:51 | 12.50396 | -70.01858 | 45 ft | 13 kts | 284° |
| 2026-05-06 12:51 | 12.50418 | -70.01948 | 45 ft | 13 kts | 283° |
| 2026-05-06 12:51 | 12.50439 | -70.02038 | 44 ft | 13 kts | 283° |
| 2026-05-06 12:51 | 12.50465 | -70.02147 | 44 ft | 19 kts | 284° |
| 2026-05-06 12:52 | 12.50498 | -70.02287 | 44 ft | 21 kts | 283° |
| 2026-05-06 12:52 | 12.50533 | -70.02435 | 44 ft | 20 kts | 284° |
| 2026-05-06 12:52 | 12.50560 | -70.02549 | 42 ft | 14 kts | 283° |
| 2026-05-06 12:52 | 12.50576 | -70.02640 | 44 ft | 13 kts | 267° |
| 2026-05-06 12:53 | 12.50548 | -70.02702 | 42 ft | 6 kts | 242° |
| 2026-05-06 12:53 | 12.50538 | -70.02720 | 40 ft | 0 kts | 242° |
| 2026-05-06 12:54 | 12.50532 | -70.02733 | 40 ft | 4 kts | 242° |
| 2026-05-06 12:54 | 12.50509 | -70.02777 | 38 ft | 10 kts | 242° |
| 2026-05-06 12:55 | 12.50478 | -70.02810 | 35 ft | 2 kts | 213° |
| 2026-05-06 12:55 | 12.50453 | -70.02817 | 34 ft | 5 kts | 182° |
| 2026-05-06 12:55 | 12.50440 | -70.02798 | 33 ft | 0 kts | 98° |
| 2026-05-06 12:55 | 12.50440 | -70.02797 | 33 ft | 1 kts | 98° |
| 2026-05-06 12:56 | 12.50411 | -70.02674 | 35 ft | 49 kts | 104° |
| 2026-05-06 12:56 | 12.50272 | -70.02086 | 40 ft | 117 kts | 103° |
| 2026-05-06 12:56 | 12.50033 | -70.01096 | 92 ft | 164 kts | 104° |
| 2026-05-06 12:56 | 12.49751 | -69.99996 | 912 ft | 157 kts | 104° |
| 2026-05-06 12:57 | 12.49487 | -69.98910 | 1572 ft | 164 kts | 104° |
| 2026-05-06 12:57 | 12.49212 | -69.97744 | 1943 ft | 173 kts | 104° |
| 2026-05-06 12:57 | 12.48920 | -69.96491 | 2186 ft | 192 kts | 104° |
| 2026-05-06 12:57 | 12.48591 | -69.95079 | 2388 ft | 216 kts | 102° |
| 2026-05-06 12:58 | 12.48712 | -69.93488 | 2737 ft | 240 kts | 68° |
| 2026-05-06 12:58 | 12.49895 | -69.92207 | 3332 ft | 263 kts | 33° |
| 2026-05-06 12:58 | 12.51659 | -69.91554 | 4047 ft | 275 kts | 18° |
| 2026-05-06 12:58 | 12.53561 | -69.91185 | 4731 ft | 281 kts | 13° |
| 2026-05-06 12:59 | 12.55510 | -69.90867 | 5383 ft | 286 kts | 13° |
| 2026-05-06 12:59 | 12.57477 | -69.90501 | 6064 ft | 288 kts | 15° |
| 2026-05-06 12:59 | 12.59439 | -69.90067 | 6738 ft | 289 kts | 18° |
| 2026-05-06 12:59 | 12.61403 | -69.89571 | 7372 ft | 292 kts | 19° |
| 2026-05-06 13:00 | 12.62705 | -69.89217 | 7782 ft | 293 kts | 19° |
| 2026-05-06 13:00 | 12.64681 | -69.88659 | 8416 ft | 296 kts | 21° |
| 2026-05-06 13:00 | 12.66673 | -69.88080 | 9034 ft | 298 kts | 20° |
| 2026-05-06 13:00 | 12.68678 | -69.87494 | 9655 ft | 301 kts | 20° |
| 2026-05-06 13:01 | 12.70699 | -69.86903 | 10226 ft | 304 kts | 19° |
| 2026-05-06 13:01 | 12.72759 | -69.86301 | 10536 ft | 316 kts | 19° |
| 2026-05-06 13:01 | 12.74935 | -69.85664 | 10662 ft | 334 kts | 21° |
| 2026-05-06 13:01 | 12.77227 | -69.84994 | 10782 ft | 351 kts | 19° |
| 2026-05-06 13:02 | 12.79627 | -69.84297 | 10890 ft | 366 kts | 19° |
| 2026-05-06 13:02 | 12.82116 | -69.83573 | 11121 ft | 376 kts | 20° |
| 2026-05-06 13:02 | 12.84644 | -69.82839 | 11544 ft | 379 kts | 19° |
| 2026-05-06 13:02 | 12.87194 | -69.82102 | 12003 ft | 382 kts | 19° |
| 2026-05-06 13:03 | 12.89726 | -69.81373 | 12462 ft | 384 kts | 19° |
| 2026-05-06 13:03 | 12.92306 | -69.80630 | 12917 ft | 386 kts | 19° |
| 2026-05-06 13:03 | 12.94910 | -69.79909 | 13369 ft | 390 kts | 15° |
| 2026-05-06 13:03 | 12.97623 | -69.79574 | 13806 ft | 397 kts | 4° |
| 2026-05-06 13:04 | 13.00400 | -69.79735 | 14217 ft | 400 kts | 358° |
| 2026-05-06 13:04 | 13.03177 | -69.79989 | 14655 ft | 401 kts | 359° |
| 2026-05-06 13:04 | 13.05958 | -69.80239 | 15106 ft | 401 kts | 357° |
| 2026-05-06 13:04 | 13.08740 | -69.80484 | 15571 ft | 401 kts | 358° |
| 2026-05-06 13:05 | 13.11522 | -69.80729 | 16051 ft | 401 kts | 356° |
| 2026-05-06 13:05 | 13.14306 | -69.80974 | 16508 ft | 402 kts | 358° |
| 2026-05-06 13:05 | 13.17088 | -69.81222 | 17017 ft | 401 kts | 356° |
| 2026-05-06 13:05 | 13.19869 | -69.81472 | 17457 ft | 402 kts | 356° |
| 2026-05-06 13:06 | 13.22655 | -69.81719 | 17951 ft | 402 kts | 357° |
| 2026-05-06 13:06 | 13.25437 | -69.81966 | 18441 ft | 401 kts | 356° |
| 2026-05-06 13:06 | 13.28229 | -69.82214 | 18809 ft | 403 kts | 357° |
| 2026-05-06 13:06 | 13.31019 | -69.82462 | 19212 ft | 403 kts | 356° |
| 2026-05-06 13:07 | 13.33820 | -69.82711 | 19544 ft | 406 kts | 356° |
| 2026-05-06 13:07 | 13.36633 | -69.82959 | 19936 ft | 405 kts | 356° |
| 2026-05-06 13:07 | 13.39455 | -69.83209 | 20233 ft | 409 kts | 356° |
| 2026-05-06 13:07 | 13.42303 | -69.83464 | 20583 ft | 410 kts | 356° |
| 2026-05-06 13:08 | 13.45143 | -69.83718 | 20943 ft | 412 kts | 355° |
| 2026-05-06 13:08 | 13.48017 | -69.83973 | 21218 ft | 415 kts | 355° |
| 2026-05-06 13:08 | 13.50892 | -69.84227 | 21580 ft | 415 kts | 355° |
| 2026-05-06 13:08 | 13.53781 | -69.84482 | 21855 ft | 418 kts | 355° |
| 2026-05-06 13:09 | 13.56682 | -69.84738 | 22207 ft | 418 kts | 355° |
| 2026-05-06 13:09 | 13.59594 | -69.84998 | 22461 ft | 421 kts | 355° |
| 2026-05-06 13:09 | 13.62517 | -69.85262 | 22738 ft | 423 kts | 355° |
| 2026-05-06 13:09 | 13.65458 | -69.85528 | 23029 ft | 425 kts | 355° |
| 2026-05-06 13:10 | 13.68409 | -69.85792 | 23293 ft | 426 kts | 355° |
| 2026-05-06 13:10 | 13.71367 | -69.86056 | 23584 ft | 428 kts | 355° |
| 2026-05-06 13:10 | 13.74340 | -69.86321 | 23786 ft | 430 kts | 355° |
| 2026-05-06 13:10 | 13.77320 | -69.86586 | 24027 ft | 430 kts | 355° |
| 2026-05-06 13:11 | 13.80312 | -69.86851 | 24220 ft | 433 kts | 355° |
| 2026-05-06 13:11 | 13.83315 | -69.87118 | 24469 ft | 433 kts | 355° |
| 2026-05-06 13:11 | 13.86326 | -69.87387 | 24657 ft | 436 kts | 355° |
| 2026-05-06 13:11 | 13.89353 | -69.87660 | 24877 ft | 437 kts | 355° |
| 2026-05-06 13:12 | 13.92386 | -69.87931 | 25099 ft | 438 kts | 355° |
| 2026-05-06 13:12 | 13.95387 | -69.88199 | 25340 ft | 438 kts | 354° |
| 2026-05-06 13:12 | 13.98417 | -69.88468 | 25682 ft | 437 kts | 354° |
| 2026-05-06 13:12 | 14.01450 | -69.88737 | 25919 ft | 438 kts | 354° |
| 2026-05-06 13:13 | 14.04482 | -69.89008 | 26256 ft | 436 kts | 354° |
| 2026-05-06 13:13 | 14.07511 | -69.89280 | 26506 ft | 437 kts | 354° |
| 2026-05-06 13:13 | 14.10537 | -69.89551 | 26853 ft | 436 kts | 354° |
| 2026-05-06 13:13 | 14.13559 | -69.89820 | 27111 ft | 437 kts | 354° |
| 2026-05-06 13:14 | 14.16583 | -69.90090 | 27455 ft | 435 kts | 353° |
| 2026-05-06 13:14 | 14.19598 | -69.90363 | 27743 ft | 436 kts | 354° |
| 2026-05-06 13:14 | 14.22618 | -69.90639 | 28024 ft | 436 kts | 353° |
| 2026-05-06 13:14 | 14.25634 | -69.90911 | 28354 ft | 435 kts | 354° |
| 2026-05-06 13:15 | 14.28655 | -69.91182 | 28625 ft | 436 kts | 353° |
| 2026-05-06 13:15 | 14.31672 | -69.91451 | 28977 ft | 435 kts | 353° |
| 2026-05-06 13:15 | 14.34692 | -69.91722 | 29262 ft | 436 kts | 353° |
| 2026-05-06 13:15 | 14.37708 | -69.91993 | 29622 ft | 435 kts | 353° |
| 2026-05-06 13:16 | 14.40731 | -69.92266 | 29923 ft | 436 kts | 353° |
| 2026-05-06 13:16 | 14.43745 | -69.92535 | 30278 ft | 434 kts | 352° |
| 2026-05-06 13:16 | 14.46756 | -69.92804 | 30530 ft | 435 kts | 352° |
| 2026-05-06 13:16 | 14.49768 | -69.93073 | 30821 ft | 434 kts | 353° |
| 2026-05-06 13:17 | 14.52776 | -69.93341 | 31106 ft | 434 kts | 353° |
| 2026-05-06 13:17 | 14.55784 | -69.93612 | 31385 ft | 434 kts | 352° |
| 2026-05-06 13:17 | 14.58788 | -69.93883 | 31673 ft | 434 kts | 352° |
| 2026-05-06 13:17 | 14.61793 | -69.94155 | 31966 ft | 433 kts | 352° |
| 2026-05-06 13:18 | 14.64794 | -69.94424 | 32274 ft | 433 kts | 353° |
| 2026-05-06 13:18 | 14.67754 | -69.94690 | 32561 ft | 433 kts | 352° |
| 2026-05-06 13:18 | 14.70751 | -69.94960 | 32867 ft | 432 kts | 352° |
| 2026-05-06 13:18 | 14.73746 | -69.95228 | 33164 ft | 432 kts | 352° |
| 2026-05-06 13:19 | 14.76731 | -69.95498 | 33528 ft | 429 kts | 352° |
| 2026-05-06 13:19 | 14.79701 | -69.95766 | 33866 ft | 428 kts | 352° |
| 2026-05-06 13:19 | 14.82661 | -69.96034 | 34152 ft | 427 kts | 352° |
| 2026-05-06 13:19 | 14.85617 | -69.96302 | 34386 ft | 426 kts | 352° |
| 2026-05-06 13:20 | 14.88572 | -69.96567 | 34607 ft | 426 kts | 352° |
| 2026-05-06 13:20 | 14.91526 | -69.96831 | 34821 ft | 426 kts | 352° |
| 2026-05-06 13:20 | 14.94486 | -69.97098 | 35002 ft | 427 kts | 352° |
| 2026-05-06 13:21 | 15.00444 | -69.97637 | 35075 ft | 435 kts | 352° |
| 2026-05-06 13:21 | 15.06545 | -69.98193 | 35077 ft | 445 kts | 352° |
| 2026-05-06 13:22 | 15.12735 | -69.98753 | 35074 ft | 447 kts | 352° |
| 2026-05-06 13:22 | 15.18931 | -69.99305 | 35079 ft | 447 kts | 352° |
| 2026-05-06 13:23 | 15.25127 | -69.99860 | 35080 ft | 447 kts | 352° |
| 2026-05-06 13:23 | 15.31325 | -70.00419 | 35083 ft | 447 kts | 352° |
| 2026-05-06 13:24 | 15.37531 | -70.00987 | 35086 ft | 447 kts | 352° |
| 2026-05-06 13:24 | 15.43692 | -70.01543 | 35101 ft | 447 kts | 353° |
| 2026-05-06 13:25 | 15.49884 | -70.02095 | 35108 ft | 446 kts | 353° |
| 2026-05-06 13:25 | 15.56059 | -70.02656 | 35108 ft | 445 kts | 353° |
| 2026-05-06 13:26 | 15.62224 | -70.03226 | 35106 ft | 445 kts | 353° |
| 2026-05-06 13:26 | 15.68382 | -70.03794 | 35107 ft | 444 kts | 353° |
| 2026-05-06 13:27 | 15.74536 | -70.04354 | 35105 ft | 444 kts | 353° |
| 2026-05-06 13:27 | 15.80689 | -70.04905 | 35109 ft | 444 kts | 353° |
| 2026-05-06 13:28 | 15.86838 | -70.05463 | 35110 ft | 444 kts | 353° |
| 2026-05-06 13:28 | 15.92991 | -70.06026 | 35108 ft | 443 kts | 353° |
| 2026-05-06 13:29 | 15.99138 | -70.06586 | 35107 ft | 443 kts | 353° |
| 2026-05-06 13:29 | 16.05254 | -70.07359 | 35106 ft | 442 kts | 349° |
| 2026-05-06 13:30 | 16.11321 | -70.08408 | 35113 ft | 442 kts | 348° |
| 2026-05-06 13:30 | 16.17388 | -70.09471 | 35109 ft | 442 kts | 349° |
| 2026-05-06 13:31 | 16.23473 | -70.10466 | 35110 ft | 442 kts | 349° |
| 2026-05-06 13:31 | 16.29554 | -70.11434 | 35109 ft | 443 kts | 349° |
| 2026-05-06 13:32 | 16.35649 | -70.12405 | 35112 ft | 443 kts | 349° |
| 2026-05-06 13:32 | 16.41738 | -70.13391 | 35113 ft | 443 kts | 349° |
| 2026-05-06 13:33 | 16.47828 | -70.14379 | 35118 ft | 443 kts | 349° |
| 2026-05-06 13:33 | 16.53918 | -70.15360 | 35122 ft | 443 kts | 349° |
| 2026-05-06 13:34 | 16.60006 | -70.16345 | 35119 ft | 443 kts | 349° |
| 2026-05-06 13:34 | 16.66053 | -70.17327 | 35121 ft | 443 kts | 349° |
| 2026-05-06 13:35 | 16.72141 | -70.18317 | 35121 ft | 443 kts | 349° |
| 2026-05-06 13:35 | 16.78234 | -70.19312 | 35129 ft | 443 kts | 349° |
| 2026-05-06 13:36 | 16.84320 | -70.20299 | 35126 ft | 442 kts | 349° |
| 2026-05-06 13:36 | 16.90399 | -70.21284 | 35133 ft | 442 kts | 349° |
| 2026-05-06 13:37 | 16.96469 | -70.22270 | 35138 ft | 441 kts | 349° |
| 2026-05-06 13:37 | 17.02533 | -70.23251 | 35137 ft | 441 kts | 349° |
| 2026-05-06 13:38 | 17.08592 | -70.24242 | 35136 ft | 441 kts | 349° |
| 2026-05-06 13:38 | 17.14657 | -70.25228 | 35136 ft | 441 kts | 349° |
| 2026-05-06 13:39 | 17.20716 | -70.26215 | 35138 ft | 441 kts | 349° |
| 2026-05-06 13:39 | 17.26775 | -70.27202 | 35137 ft | 441 kts | 349° |
| 2026-05-06 13:40 | 17.32834 | -70.28191 | 35137 ft | 441 kts | 349° |
| 2026-05-06 13:40 | 17.38893 | -70.29182 | 35138 ft | 441 kts | 349° |
| 2026-05-06 13:41 | 17.44953 | -70.30165 | 35152 ft | 441 kts | 349° |
| 2026-05-06 13:41 | 17.51012 | -70.31158 | 35149 ft | 440 kts | 349° |
| 2026-05-06 13:42 | 17.57017 | -70.32150 | 35147 ft | 440 kts | 349° |
| 2026-05-06 13:42 | 17.63059 | -70.33136 | 35148 ft | 439 kts | 349° |
| 2026-05-06 13:43 | 17.69100 | -70.34113 | 35152 ft | 439 kts | 349° |
| 2026-05-06 13:43 | 17.75137 | -70.35100 | 35151 ft | 439 kts | 349° |
| 2026-05-06 13:44 | 17.81166 | -70.36105 | 35160 ft | 438 kts | 349° |
| 2026-05-06 13:44 | 17.87190 | -70.37099 | 35158 ft | 437 kts | 349° |
| 2026-05-06 13:45 | 17.93200 | -70.38080 | 35156 ft | 437 kts | 349° |
| 2026-05-06 13:45 | 18.02201 | -70.39552 | 35158 ft | 436 kts | 349° |
| 2026-05-06 13:46 | 18.08204 | -70.40545 | 35153 ft | 436 kts | 349° |
| 2026-05-06 13:46 | 18.14194 | -70.41539 | 35171 ft | 435 kts | 349° |
| 2026-05-06 13:47 | 18.20169 | -70.42520 | 35165 ft | 434 kts | 349° |
| 2026-05-06 13:47 | 18.26132 | -70.43499 | 35173 ft | 433 kts | 349° |
| 2026-05-06 13:48 | 18.32088 | -70.44481 | 35173 ft | 433 kts | 349° |
| 2026-05-06 13:48 | 18.38041 | -70.45461 | 35184 ft | 433 kts | 349° |
| 2026-05-06 13:49 | 18.43995 | -70.46445 | 35190 ft | 432 kts | 349° |
| 2026-05-06 13:49 | 18.49933 | -70.47432 | 35201 ft | 432 kts | 349° |
| 2026-05-06 13:50 | 18.54858 | -70.48252 | 35195 ft | 431 kts | 349° |
| 2026-05-06 13:50 | 18.60781 | -70.49228 | 35198 ft | 431 kts | 349° |
| 2026-05-06 13:51 | 18.66704 | -70.50198 | 35198 ft | 430 kts | 349° |
| 2026-05-06 13:51 | 18.72617 | -70.51179 | 35195 ft | 430 kts | 349° |
| 2026-05-06 13:52 | 18.78528 | -70.52164 | 35213 ft | 430 kts | 349° |
| 2026-05-06 13:52 | 18.84434 | -70.53149 | 35204 ft | 430 kts | 349° |
| 2026-05-06 13:53 | 18.90339 | -70.54129 | 35196 ft | 429 kts | 349° |
| 2026-05-06 13:53 | 18.96224 | -70.55106 | 35206 ft | 427 kts | 349° |
| 2026-05-06 13:54 | 19.02099 | -70.56083 | 35189 ft | 427 kts | 349° |
| 2026-05-06 13:54 | 19.07970 | -70.57061 | 35197 ft | 427 kts | 349° |
| 2026-05-06 13:55 | 19.13835 | -70.58037 | 35172 ft | 426 kts | 349° |
| 2026-05-06 13:55 | 19.19692 | -70.59010 | 35157 ft | 426 kts | 349° |
| 2026-05-06 13:56 | 19.25544 | -70.59981 | 35140 ft | 426 kts | 349° |
| 2026-05-06 13:56 | 19.31400 | -70.60956 | 35129 ft | 426 kts | 349° |
| 2026-05-06 13:57 | 19.37247 | -70.61942 | 35128 ft | 425 kts | 349° |
| 2026-05-06 13:57 | 19.43093 | -70.62917 | 35136 ft | 425 kts | 349° |
| 2026-05-06 13:58 | 19.48935 | -70.63896 | 35132 ft | 425 kts | 349° |
| 2026-05-06 13:58 | 19.54773 | -70.64871 | 35133 ft | 425 kts | 349° |
| 2026-05-06 13:59 | 19.60612 | -70.65849 | 35133 ft | 425 kts | 349° |
| 2026-05-06 13:59 | 19.66413 | -70.66821 | 35132 ft | 425 kts | 349° |
| 2026-05-06 14:00 | 19.72250 | -70.67800 | 35102 ft | 425 kts | 349° |
| 2026-05-06 14:00 | 19.78089 | -70.68779 | 35116 ft | 424 kts | 349° |
| 2026-05-06 14:01 | 19.83918 | -70.69759 | 35110 ft | 424 kts | 349° |
| 2026-05-06 14:01 | 19.89745 | -70.70737 | 35109 ft | 424 kts | 349° |
| 2026-05-06 14:02 | 19.95573 | -70.71712 | 35108 ft | 424 kts | 349° |
| 2026-05-06 14:02 | 20.01401 | -70.72696 | 35112 ft | 424 kts | 348° |
| 2026-05-06 14:03 | 20.07230 | -70.73682 | 35133 ft | 424 kts | 348° |
| 2026-05-06 14:03 | 20.13060 | -70.74659 | 35125 ft | 424 kts | 348° |
| 2026-05-06 14:04 | 20.18885 | -70.75644 | 35123 ft | 424 kts | 348° |
| 2026-05-06 14:04 | 20.24713 | -70.76625 | 35119 ft | 424 kts | 348° |
| 2026-05-06 14:05 | 20.30538 | -70.77608 | 35124 ft | 424 kts | 348° |
| 2026-05-06 14:05 | 20.36366 | -70.78592 | 35125 ft | 424 kts | 348° |
| 2026-05-06 14:06 | 20.42170 | -70.79676 | 35120 ft | 422 kts | 342° |
| 2026-05-06 14:06 | 20.47757 | -70.81559 | 35122 ft | 421 kts | 340° |
| 2026-05-06 14:07 | 20.53352 | -70.83455 | 35122 ft | 422 kts | 340° |
| 2026-05-06 14:07 | 20.58940 | -70.85344 | 35124 ft | 422 kts | 340° |
| 2026-05-06 14:08 | 20.64536 | -70.87245 | 35121 ft | 422 kts | 340° |
| 2026-05-06 14:08 | 20.70120 | -70.89142 | 35136 ft | 421 kts | 341° |
| 2026-05-06 14:09 | 20.75687 | -70.91042 | 35134 ft | 419 kts | 341° |
| 2026-05-06 14:09 | 20.81247 | -70.92937 | 35129 ft | 419 kts | 341° |
| 2026-05-06 14:10 | 20.86759 | -70.94806 | 35131 ft | 418 kts | 341° |
| 2026-05-06 14:10 | 20.92302 | -70.96697 | 35126 ft | 418 kts | 341° |
| 2026-05-06 14:11 | 20.98038 | -70.97732 | 35128 ft | 420 kts | 353° |
| 2026-05-06 14:11 | 21.03868 | -70.98248 | 35137 ft | 420 kts | 353° |
| 2026-05-06 14:12 | 21.09695 | -70.98768 | 35132 ft | 420 kts | 353° |
| 2026-05-06 14:12 | 21.15517 | -70.99297 | 35136 ft | 420 kts | 353° |
| 2026-05-06 14:13 | 21.21340 | -70.99827 | 35133 ft | 420 kts | 353° |
| 2026-05-06 14:13 | 21.27157 | -71.00352 | 35125 ft | 419 kts | 353° |
| 2026-05-06 14:14 | 21.32973 | -71.00872 | 35123 ft | 419 kts | 353° |
| 2026-05-06 14:14 | 21.38790 | -71.01403 | 35146 ft | 419 kts | 353° |
| 2026-05-06 14:15 | 21.44598 | -71.01930 | 35131 ft | 419 kts | 353° |
| 2026-05-06 14:15 | 21.50400 | -71.02450 | 35131 ft | 418 kts | 353° |
| 2026-05-06 14:16 | 21.56198 | -71.02966 | 35124 ft | 418 kts | 355° |
| 2026-05-06 14:16 | 21.62009 | -71.02296 | 35123 ft | 423 kts | 7° |
| 2026-05-06 14:17 | 21.67796 | -71.01124 | 35137 ft | 423 kts | 7° |
| 2026-05-06 14:17 | 21.73586 | -70.99955 | 35134 ft | 424 kts | 7° |
| 2026-05-06 14:18 | 21.79386 | -70.98793 | 35134 ft | 424 kts | 7° |
| 2026-05-06 14:18 | 21.85179 | -70.97627 | 35135 ft | 423 kts | 7° |
| 2026-05-06 14:19 | 21.90970 | -70.96461 | 35134 ft | 423 kts | 7° |
| 2026-05-06 14:19 | 21.96761 | -70.95292 | 35144 ft | 423 kts | 7° |
| 2026-05-06 14:20 | 22.02553 | -70.94119 | 35145 ft | 424 kts | 7° |
| 2026-05-06 14:20 | 22.08347 | -70.92945 | 35143 ft | 424 kts | 7° |
| 2026-05-06 14:21 | 22.14109 | -70.91778 | 35141 ft | 424 kts | 7° |
| 2026-05-06 14:21 | 22.19903 | -70.90611 | 35141 ft | 424 kts | 7° |
| 2026-05-06 14:22 | 22.25697 | -70.89442 | 35143 ft | 424 kts | 7° |
| 2026-05-06 14:22 | 22.31489 | -70.88270 | 35155 ft | 423 kts | 7° |
| 2026-05-06 14:23 | 22.37281 | -70.87095 | 35143 ft | 424 kts | 7° |
| 2026-05-06 14:23 | 22.43090 | -70.85914 | 35129 ft | 426 kts | 7° |
| 2026-05-06 14:24 | 22.48924 | -70.84727 | 35128 ft | 427 kts | 7° |
| 2026-05-06 14:24 | 22.54762 | -70.83546 | 35129 ft | 427 kts | 7° |
| 2026-05-06 14:25 | 22.60600 | -70.82360 | 35144 ft | 427 kts | 7° |
| 2026-05-06 14:25 | 22.66445 | -70.81164 | 35144 ft | 427 kts | 7° |
| 2026-05-06 14:26 | 22.72312 | -70.80899 | 35144 ft | 421 kts | 353° |
| 2026-05-06 14:26 | 22.78159 | -70.81397 | 35143 ft | 422 kts | 353° |
| 2026-05-06 14:27 | 22.84010 | -70.81874 | 35141 ft | 422 kts | 354° |
| 2026-05-06 14:27 | 22.89861 | -70.82346 | 35159 ft | 422 kts | 354° |
| 2026-05-06 14:28 | 22.95714 | -70.82825 | 35155 ft | 421 kts | 354° |
| 2026-05-06 14:28 | 23.01556 | -70.83322 | 35151 ft | 421 kts | 353° |
| 2026-05-06 14:29 | 23.07356 | -70.83822 | 35149 ft | 421 kts | 353° |
| 2026-05-06 14:29 | 23.13192 | -70.84325 | 35147 ft | 421 kts | 354° |
| 2026-05-06 14:30 | 23.19027 | -70.84816 | 35159 ft | 421 kts | 354° |
| 2026-05-06 14:30 | 23.24900 | -70.85312 | 35155 ft | 420 kts | 354° |
| 2026-05-06 14:31 | 23.30731 | -70.85804 | 35155 ft | 420 kts | 354° |
| 2026-05-06 14:31 | 23.36528 | -70.86300 | 35153 ft | 420 kts | 354° |
| 2026-05-06 14:32 | 23.42357 | -70.86799 | 35149 ft | 420 kts | 354° |
| 2026-05-06 14:32 | 23.48188 | -70.87262 | 35148 ft | 420 kts | 354° |
| 2026-05-06 14:33 | 23.54022 | -70.87705 | 35151 ft | 420 kts | 354° |
| 2026-05-06 14:33 | 23.59853 | -70.88155 | 35140 ft | 418 kts | 354° |
| 2026-05-06 14:34 | 23.65633 | -70.88611 | 35139 ft | 416 kts | 354° |
| 2026-05-06 14:34 | 23.71404 | -70.89071 | 35142 ft | 416 kts | 354° |
| 2026-05-06 14:35 | 23.77180 | -70.89529 | 35136 ft | 416 kts | 354° |
| 2026-05-06 14:35 | 23.82949 | -70.89985 | 35134 ft | 415 kts | 354° |
| 2026-05-06 14:36 | 23.88714 | -70.90444 | 35142 ft | 416 kts | 354° |
| 2026-05-06 14:36 | 23.94483 | -70.90903 | 35148 ft | 416 kts | 354° |
| 2026-05-06 14:37 | 24.00253 | -70.91356 | 35150 ft | 416 kts | 354° |
| 2026-05-06 14:37 | 24.06025 | -70.91817 | 35150 ft | 415 kts | 354° |
| 2026-05-06 14:38 | 24.10814 | -70.92196 | 35162 ft | 415 kts | 354° |
| 2026-05-06 14:38 | 24.16573 | -70.92684 | 35163 ft | 415 kts | 353° |
| 2026-05-06 14:39 | 24.22320 | -70.93265 | 35159 ft | 415 kts | 353° |
| 2026-05-06 14:39 | 24.28070 | -70.93861 | 35158 ft | 415 kts | 353° |
| 2026-05-06 14:40 | 24.33816 | -70.94441 | 35158 ft | 415 kts | 353° |
| 2026-05-06 14:40 | 24.39566 | -70.95001 | 35159 ft | 415 kts | 353° |
| 2026-05-06 14:41 | 24.45317 | -70.95564 | 35169 ft | 415 kts | 353° |
| 2026-05-06 14:41 | 24.51065 | -70.96135 | 35167 ft | 415 kts | 353° |
| 2026-05-06 14:42 | 24.56811 | -70.96710 | 35168 ft | 415 kts | 353° |
| 2026-05-06 14:42 | 24.62555 | -70.97282 | 35166 ft | 414 kts | 353° |
| 2026-05-06 14:43 | 24.68302 | -70.97842 | 35163 ft | 414 kts | 353° |
| 2026-05-06 14:43 | 24.74040 | -70.98405 | 35172 ft | 414 kts | 353° |
| 2026-05-06 14:44 | 24.79771 | -70.98976 | 35171 ft | 413 kts | 353° |
| 2026-05-06 14:45 | 24.88356 | -70.99831 | 35162 ft | 413 kts | 353° |
| 2026-05-06 14:45 | 24.94075 | -71.00401 | 35160 ft | 413 kts | 353° |
| 2026-05-06 14:46 | 24.99790 | -71.01002 | 35160 ft | 412 kts | 349° |
| 2026-05-06 14:46 | 25.05367 | -71.02424 | 35167 ft | 411 kts | 345° |
| 2026-05-06 14:47 | 25.10890 | -71.03899 | 35165 ft | 411 kts | 345° |
| 2026-05-06 14:47 | 25.16456 | -71.05377 | 35165 ft | 412 kts | 345° |
| 2026-05-06 14:48 | 25.22025 | -71.06853 | 35164 ft | 412 kts | 345° |
| 2026-05-06 14:48 | 25.27596 | -71.08337 | 35165 ft | 412 kts | 345° |
| 2026-05-06 14:49 | 25.33166 | -71.09833 | 35180 ft | 412 kts | 345° |
| 2026-05-06 14:49 | 25.38744 | -71.11329 | 35179 ft | 412 kts | 345° |
| 2026-05-06 14:50 | 25.44320 | -71.12815 | 35177 ft | 412 kts | 345° |
| 2026-05-06 14:50 | 25.49895 | -71.14307 | 35178 ft | 412 kts | 345° |
| 2026-05-06 14:51 | 25.55468 | -71.15806 | 35175 ft | 412 kts | 345° |
| 2026-05-06 14:51 | 25.61042 | -71.17300 | 35173 ft | 412 kts | 345° |
| 2026-05-06 14:52 | 25.66613 | -71.18800 | 35183 ft | 412 kts | 345° |
| 2026-05-06 14:52 | 25.72180 | -71.20294 | 35180 ft | 412 kts | 345° |
| 2026-05-06 14:53 | 25.77747 | -71.21795 | 35180 ft | 411 kts | 345° |
| 2026-05-06 14:53 | 25.83305 | -71.23299 | 35180 ft | 411 kts | 345° |
| 2026-05-06 14:54 | 25.88859 | -71.24800 | 35178 ft | 411 kts | 345° |
| 2026-05-06 14:54 | 25.94410 | -71.26295 | 35180 ft | 410 kts | 345° |
| 2026-05-06 14:55 | 25.99960 | -71.27793 | 35177 ft | 410 kts | 344° |
| 2026-05-06 14:55 | 26.05510 | -71.29296 | 35172 ft | 411 kts | 344° |
| 2026-05-06 14:56 | 26.11026 | -71.30790 | 35170 ft | 411 kts | 344° |
| 2026-05-06 14:56 | 26.16585 | -71.32298 | 35182 ft | 411 kts | 344° |
| 2026-05-06 14:57 | 26.22141 | -71.33801 | 35181 ft | 411 kts | 345° |
| 2026-05-06 14:57 | 26.27696 | -71.35309 | 35191 ft | 411 kts | 344° |
| 2026-05-06 14:58 | 26.33246 | -71.36823 | 35185 ft | 410 kts | 344° |
| 2026-05-06 14:58 | 26.38794 | -71.38335 | 35181 ft | 411 kts | 344° |
| 2026-05-06 14:59 | 26.44343 | -71.39842 | 35182 ft | 410 kts | 344° |
| 2026-05-06 14:59 | 26.49893 | -71.41357 | 35184 ft | 410 kts | 344° |
| 2026-05-06 15:00 | 26.55439 | -71.42870 | 35179 ft | 410 kts | 344° |
| 2026-05-06 15:00 | 26.60987 | -71.44379 | 35188 ft | 410 kts | 344° |
| 2026-05-06 15:01 | 26.66533 | -71.45893 | 35189 ft | 410 kts | 344° |
| 2026-05-06 15:01 | 26.72077 | -71.47407 | 35184 ft | 410 kts | 344° |
| 2026-05-06 15:02 | 26.77620 | -71.48926 | 35183 ft | 410 kts | 344° |
| 2026-05-06 15:02 | 26.83168 | -71.50454 | 35210 ft | 410 kts | 344° |
| 2026-05-06 15:03 | 26.88712 | -71.51978 | 35202 ft | 410 kts | 344° |
| 2026-05-06 15:03 | 26.94250 | -71.53505 | 35196 ft | 410 kts | 344° |
| 2026-05-06 15:04 | 26.99745 | -71.55027 | 35195 ft | 409 kts | 344° |
| 2026-05-06 15:04 | 27.05279 | -71.56547 | 35180 ft | 409 kts | 344° |
| 2026-05-06 15:05 | 27.10800 | -71.58064 | 35185 ft | 408 kts | 344° |
| 2026-05-06 15:05 | 27.16312 | -71.59581 | 35198 ft | 408 kts | 344° |
| 2026-05-06 15:06 | 27.21815 | -71.61104 | 35199 ft | 407 kts | 344° |
| 2026-05-06 15:06 | 27.27313 | -71.62624 | 35193 ft | 407 kts | 344° |
| 2026-05-06 15:07 | 27.32805 | -71.64151 | 35185 ft | 406 kts | 344° |
| 2026-05-06 15:07 | 27.38302 | -71.65670 | 35185 ft | 406 kts | 344° |
| 2026-05-06 15:08 | 27.43792 | -71.67188 | 35191 ft | 406 kts | 344° |
| 2026-05-06 15:08 | 27.49282 | -71.68714 | 35188 ft | 407 kts | 344° |
| 2026-05-06 15:09 | 27.54773 | -71.70241 | 35187 ft | 406 kts | 344° |
| 2026-05-06 15:09 | 27.60263 | -71.71774 | 35183 ft | 406 kts | 344° |
| 2026-05-06 15:10 | 27.65754 | -71.73302 | 35182 ft | 406 kts | 344° |
| 2026-05-06 15:10 | 27.71251 | -71.74827 | 35182 ft | 407 kts | 344° |
| 2026-05-06 15:11 | 27.76706 | -71.76346 | 35195 ft | 406 kts | 343° |
| 2026-05-06 15:11 | 27.82193 | -71.77888 | 35191 ft | 406 kts | 343° |
| 2026-05-06 15:12 | 27.87680 | -71.79426 | 35188 ft | 406 kts | 343° |
| 2026-05-06 15:12 | 27.93165 | -71.80965 | 35188 ft | 406 kts | 344° |
| 2026-05-06 15:13 | 27.98650 | -71.82500 | 35185 ft | 406 kts | 343° |
| 2026-05-06 15:13 | 28.04134 | -71.84035 | 35207 ft | 406 kts | 343° |
| 2026-05-06 15:14 | 28.09620 | -71.85574 | 35191 ft | 406 kts | 343° |
| 2026-05-06 15:14 | 28.15096 | -71.87116 | 35191 ft | 406 kts | 343° |
| 2026-05-06 15:15 | 28.20573 | -71.88651 | 35200 ft | 406 kts | 343° |
| 2026-05-06 15:15 | 28.26048 | -71.90199 | 35203 ft | 406 kts | 343° |
| 2026-05-06 15:16 | 28.31519 | -71.91753 | 35202 ft | 405 kts | 343° |
| 2026-05-06 15:16 | 28.36981 | -71.93291 | 35199 ft | 404 kts | 343° |
| 2026-05-06 15:17 | 28.42438 | -71.94826 | 35204 ft | 403 kts | 343° |
| 2026-05-06 15:17 | 28.47848 | -71.96352 | 35203 ft | 403 kts | 343° |
| 2026-05-06 15:18 | 28.53290 | -71.97894 | 35198 ft | 403 kts | 343° |
| 2026-05-06 15:18 | 28.58732 | -71.99437 | 35200 ft | 403 kts | 343° |
| 2026-05-06 15:19 | 28.64173 | -72.00980 | 35209 ft | 403 kts | 343° |
| 2026-05-06 15:19 | 28.69611 | -72.02522 | 35202 ft | 403 kts | 343° |
| 2026-05-06 15:20 | 28.75045 | -72.04070 | 35204 ft | 403 kts | 343° |
| 2026-05-06 15:20 | 28.80482 | -72.05627 | 35203 ft | 403 kts | 343° |
| 2026-05-06 15:21 | 28.85915 | -72.07177 | 35204 ft | 403 kts | 343° |
| 2026-05-06 15:21 | 28.91346 | -72.08733 | 35217 ft | 403 kts | 343° |
| 2026-05-06 15:22 | 28.96779 | -72.10284 | 35213 ft | 402 kts | 343° |
| 2026-05-06 15:22 | 29.02211 | -72.11836 | 35210 ft | 402 kts | 343° |
| 2026-05-06 15:23 | 29.07642 | -72.13386 | 35205 ft | 402 kts | 343° |
| 2026-05-06 15:23 | 29.13075 | -72.14946 | 35205 ft | 402 kts | 343° |
| 2026-05-06 15:24 | 29.18468 | -72.16493 | 35217 ft | 402 kts | 343° |
| 2026-05-06 15:24 | 29.23897 | -72.18051 | 35213 ft | 402 kts | 343° |
| 2026-05-06 15:25 | 29.29322 | -72.19615 | 35212 ft | 402 kts | 343° |
| 2026-05-06 15:25 | 29.34749 | -72.21169 | 35212 ft | 402 kts | 343° |
| 2026-05-06 15:26 | 29.40171 | -72.22737 | 35210 ft | 402 kts | 343° |
| 2026-05-06 15:26 | 29.45595 | -72.24301 | 35210 ft | 402 kts | 343° |
| 2026-05-06 15:27 | 29.51021 | -72.25878 | 35200 ft | 402 kts | 343° |
| 2026-05-06 15:27 | 29.56434 | -72.27445 | 35208 ft | 401 kts | 343° |
| 2026-05-06 15:28 | 29.61840 | -72.29003 | 35208 ft | 400 kts | 343° |
| 2026-05-06 15:28 | 29.67238 | -72.30569 | 35210 ft | 400 kts | 343° |
| 2026-05-06 15:29 | 29.71725 | -72.31871 | 35210 ft | 400 kts | 343° |
| 2026-05-06 15:29 | 29.77119 | -72.33435 | 35226 ft | 400 kts | 343° |
| 2026-05-06 15:30 | 29.82510 | -72.35002 | 35220 ft | 400 kts | 343° |
| 2026-05-06 15:30 | 29.87900 | -72.36572 | 35220 ft | 399 kts | 343° |
| 2026-05-06 15:31 | 29.93288 | -72.38140 | 35223 ft | 399 kts | 343° |
| 2026-05-06 15:31 | 29.98674 | -72.39720 | 35220 ft | 399 kts | 343° |
| 2026-05-06 15:32 | 30.06759 | -72.42084 | 35225 ft | 399 kts | 343° |
| 2026-05-06 15:32 | 30.12148 | -72.43652 | 35222 ft | 399 kts | 343° |
| 2026-05-06 15:33 | 30.17533 | -72.45234 | 35217 ft | 399 kts | 343° |
| 2026-05-06 15:33 | 30.22912 | -72.46835 | 35217 ft | 399 kts | 343° |
| 2026-05-06 15:34 | 30.28288 | -72.48448 | 35214 ft | 399 kts | 343° |
| 2026-05-06 15:34 | 30.33665 | -72.50055 | 35226 ft | 399 kts | 343° |
| 2026-05-06 15:35 | 30.39042 | -72.51662 | 35225 ft | 399 kts | 343° |
| 2026-05-06 15:35 | 30.44386 | -72.53261 | 35220 ft | 399 kts | 343° |
| 2026-05-06 15:36 | 30.49759 | -72.54869 | 35219 ft | 399 kts | 343° |
| 2026-05-06 15:36 | 30.55133 | -72.56475 | 35217 ft | 399 kts | 343° |
| 2026-05-06 15:37 | 30.60505 | -72.58083 | 35220 ft | 399 kts | 343° |
| 2026-05-06 15:37 | 30.65875 | -72.59698 | 35228 ft | 399 kts | 343° |
| 2026-05-06 15:38 | 30.71238 | -72.61312 | 35221 ft | 398 kts | 343° |
| 2026-05-06 15:38 | 30.76593 | -72.62924 | 35222 ft | 397 kts | 343° |
| 2026-05-06 15:39 | 30.81934 | -72.64534 | 35224 ft | 396 kts | 343° |
| 2026-05-06 15:39 | 30.87267 | -72.66150 | 35223 ft | 396 kts | 343° |
| 2026-05-06 15:40 | 30.92596 | -72.67765 | 35230 ft | 396 kts | 343° |
| 2026-05-06 15:40 | 30.97919 | -72.69377 | 35227 ft | 395 kts | 343° |
| 2026-05-06 15:41 | 31.03239 | -72.70984 | 35225 ft | 395 kts | 343° |
| 2026-05-06 15:41 | 31.08552 | -72.72601 | 35223 ft | 395 kts | 343° |
| 2026-05-06 15:42 | 31.13869 | -72.74213 | 35221 ft | 394 kts | 343° |
| 2026-05-06 15:42 | 31.19179 | -72.75827 | 35236 ft | 394 kts | 343° |
| 2026-05-06 15:43 | 31.24449 | -72.77432 | 35230 ft | 394 kts | 343° |
| 2026-05-06 15:43 | 31.29750 | -72.79046 | 35226 ft | 394 kts | 343° |
| 2026-05-06 15:44 | 31.35047 | -72.80664 | 35223 ft | 393 kts | 343° |
| 2026-05-06 15:44 | 31.40341 | -72.82282 | 35221 ft | 393 kts | 343° |
| 2026-05-06 15:45 | 31.45634 | -72.83902 | 35233 ft | 393 kts | 343° |
| 2026-05-06 15:45 | 31.50926 | -72.85526 | 35229 ft | 392 kts | 343° |
| 2026-05-06 15:46 | 31.56204 | -72.87147 | 35227 ft | 392 kts | 343° |
| 2026-05-06 15:46 | 31.61477 | -72.88771 | 35224 ft | 392 kts | 343° |
| 2026-05-06 15:47 | 31.66748 | -72.90388 | 35221 ft | 391 kts | 343° |
| 2026-05-06 15:47 | 31.72019 | -72.91999 | 35220 ft | 391 kts | 343° |
| 2026-05-06 15:48 | 31.77287 | -72.93625 | 35231 ft | 391 kts | 342° |
| 2026-05-06 15:48 | 31.82547 | -72.95247 | 35220 ft | 390 kts | 342° |
| 2026-05-06 15:49 | 31.87751 | -72.96855 | 35206 ft | 386 kts | 342° |
| 2026-05-06 15:49 | 31.92937 | -72.98455 | 35206 ft | 385 kts | 342° |
| 2026-05-06 15:50 | 31.98117 | -73.00062 | 35204 ft | 385 kts | 342° |
| 2026-05-06 15:50 | 32.03288 | -73.01665 | 35197 ft | 383 kts | 342° |
| 2026-05-06 15:51 | 32.08444 | -73.03266 | 35206 ft | 383 kts | 342° |
| 2026-05-06 15:51 | 32.13572 | -73.04859 | 35205 ft | 383 kts | 342° |
| 2026-05-06 15:52 | 32.18728 | -73.06462 | 35207 ft | 383 kts | 342° |
| 2026-05-06 15:52 | 32.23884 | -73.08068 | 35209 ft | 383 kts | 342° |
| 2026-05-06 15:53 | 32.29039 | -73.09674 | 35207 ft | 383 kts | 342° |
| 2026-05-06 15:53 | 32.34196 | -73.11278 | 35208 ft | 383 kts | 342° |
| 2026-05-06 15:54 | 32.39351 | -73.12886 | 35208 ft | 383 kts | 342° |
| 2026-05-06 15:54 | 32.44498 | -73.14507 | 35208 ft | 383 kts | 342° |
| 2026-05-06 15:55 | 32.49653 | -73.16120 | 35208 ft | 383 kts | 342° |
| 2026-05-06 15:55 | 32.54805 | -73.17727 | 35228 ft | 383 kts | 342° |
| 2026-05-06 15:56 | 32.59950 | -73.19339 | 35225 ft | 382 kts | 342° |
| 2026-05-06 15:56 | 32.65086 | -73.20951 | 35223 ft | 382 kts | 342° |
| 2026-05-06 15:57 | 32.70216 | -73.22567 | 35219 ft | 381 kts | 342° |
| 2026-05-06 15:57 | 32.75344 | -73.24183 | 35213 ft | 381 kts | 342° |
| 2026-05-06 15:58 | 32.80462 | -73.25805 | 35201 ft | 381 kts | 342° |
| 2026-05-06 15:58 | 32.85577 | -73.27420 | 35229 ft | 380 kts | 342° |
| 2026-05-06 15:59 | 32.90680 | -73.29024 | 35218 ft | 379 kts | 342° |
| 2026-05-06 15:59 | 32.95768 | -73.30634 | 35210 ft | 378 kts | 341° |
| 2026-05-06 16:00 | 33.00840 | -73.32247 | 35216 ft | 377 kts | 341° |
| 2026-05-06 16:00 | 33.05901 | -73.33855 | 35206 ft | 376 kts | 342° |
| 2026-05-06 16:01 | 33.10922 | -73.35449 | 35220 ft | 374 kts | 341° |
| 2026-05-06 16:01 | 33.15947 | -73.37049 | 35213 ft | 374 kts | 341° |
| 2026-05-06 16:02 | 33.20972 | -73.38651 | 35205 ft | 374 kts | 341° |
| 2026-05-06 16:02 | 33.26002 | -73.40248 | 35197 ft | 374 kts | 341° |
| 2026-05-06 16:03 | 33.31032 | -73.41855 | 35204 ft | 374 kts | 341° |
| 2026-05-06 16:03 | 33.36069 | -73.43466 | 35226 ft | 374 kts | 341° |
| 2026-05-06 16:04 | 33.41100 | -73.45079 | 35214 ft | 374 kts | 341° |
| 2026-05-06 16:04 | 33.46131 | -73.46692 | 35210 ft | 374 kts | 341° |
| 2026-05-06 16:05 | 33.51160 | -73.48306 | 35207 ft | 374 kts | 341° |
| 2026-05-06 16:05 | 33.56191 | -73.49912 | 35205 ft | 374 kts | 341° |
| 2026-05-06 16:06 | 33.61218 | -73.51534 | 35198 ft | 374 kts | 341° |
| 2026-05-06 16:06 | 33.66244 | -73.53154 | 35214 ft | 374 kts | 340° |
| 2026-05-06 16:07 | 33.71273 | -73.54768 | 35207 ft | 374 kts | 340° |
| 2026-05-06 16:07 | 33.76292 | -73.56393 | 35202 ft | 373 kts | 340° |
| 2026-05-06 16:08 | 33.81308 | -73.58018 | 35200 ft | 373 kts | 340° |
| 2026-05-06 16:08 | 33.86326 | -73.59635 | 35197 ft | 373 kts | 340° |
| 2026-05-06 16:09 | 33.91343 | -73.61258 | 35198 ft | 373 kts | 340° |
| 2026-05-06 16:09 | 33.96356 | -73.62888 | 35197 ft | 373 kts | 340° |
| 2026-05-06 16:10 | 34.01371 | -73.64514 | 35191 ft | 373 kts | 340° |
| 2026-05-06 16:10 | 34.06385 | -73.66146 | 35188 ft | 373 kts | 339° |
| 2026-05-06 16:11 | 34.11408 | -73.67783 | 35187 ft | 374 kts | 339° |
| 2026-05-06 16:11 | 34.16431 | -73.69415 | 35200 ft | 374 kts | 339° |
| 2026-05-06 16:12 | 34.21461 | -73.71049 | 35195 ft | 375 kts | 339° |
| 2026-05-06 16:12 | 34.26495 | -73.72699 | 35185 ft | 375 kts | 339° |
| 2026-05-06 16:13 | 34.31536 | -73.74345 | 35181 ft | 375 kts | 339° |
| 2026-05-06 16:13 | 34.36347 | -73.76593 | 35175 ft | 367 kts | 324° |
| 2026-05-06 16:14 | 34.40136 | -73.80661 | 35170 ft | 365 kts | 314° |
| 2026-05-06 16:14 | 34.43688 | -73.85050 | 35179 ft | 365 kts | 314° |
| 2026-05-06 16:15 | 34.47246 | -73.89433 | 35175 ft | 365 kts | 314° |
| 2026-05-06 16:15 | 34.50794 | -73.93826 | 35171 ft | 365 kts | 314° |
| 2026-05-06 16:16 | 34.53743 | -73.97485 | 35171 ft | 365 kts | 314° |
| 2026-05-06 16:16 | 34.57295 | -74.01882 | 35175 ft | 365 kts | 313° |
| 2026-05-06 16:17 | 34.60851 | -74.06288 | 35160 ft | 366 kts | 313° |
| 2026-05-06 16:17 | 34.64414 | -74.10704 | 35150 ft | 366 kts | 313° |
| 2026-05-06 16:18 | 34.67972 | -74.15141 | 35153 ft | 367 kts | 313° |
| 2026-05-06 16:18 | 34.71538 | -74.19579 | 35171 ft | 367 kts | 313° |
| 2026-05-06 16:19 | 34.75104 | -74.24023 | 35169 ft | 367 kts | 313° |
| 2026-05-06 16:19 | 34.78656 | -74.28463 | 35165 ft | 366 kts | 313° |
| 2026-05-06 16:20 | 34.82202 | -74.32906 | 35164 ft | 366 kts | 313° |
| 2026-05-06 16:20 | 34.85746 | -74.37351 | 35143 ft | 366 kts | 312° |
| 2026-05-06 16:21 | 34.89282 | -74.41794 | 35123 ft | 369 kts | 312° |
| 2026-05-06 16:21 | 34.92870 | -74.46294 | 35119 ft | 371 kts | 312° |
| 2026-05-06 16:22 | 34.96473 | -74.50812 | 35113 ft | 372 kts | 312° |
| 2026-05-06 16:22 | 35.00084 | -74.55353 | 35118 ft | 373 kts | 312° |
| 2026-05-06 16:23 | 35.03693 | -74.59910 | 35122 ft | 374 kts | 312° |
| 2026-05-06 16:23 | 35.07302 | -74.64478 | 35121 ft | 374 kts | 312° |
| 2026-05-06 16:24 | 35.10911 | -74.69048 | 35123 ft | 374 kts | 312° |
| 2026-05-06 16:24 | 35.14522 | -74.73616 | 35125 ft | 374 kts | 312° |
| 2026-05-06 16:25 | 35.18130 | -74.78188 | 35128 ft | 374 kts | 312° |
| 2026-05-06 16:25 | 35.21744 | -74.82766 | 35124 ft | 374 kts | 312° |
| 2026-05-06 16:26 | 35.25349 | -74.87349 | 35125 ft | 374 kts | 312° |
| 2026-05-06 16:26 | 35.28951 | -74.91941 | 35126 ft | 374 kts | 312° |
| 2026-05-06 16:27 | 35.32547 | -74.96529 | 35147 ft | 372 kts | 312° |
| 2026-05-06 16:27 | 35.36116 | -75.01082 | 35144 ft | 369 kts | 311° |
| 2026-05-06 16:28 | 35.39654 | -75.05611 | 35145 ft | 367 kts | 311° |
| 2026-05-06 16:28 | 35.43184 | -75.10134 | 35118 ft | 367 kts | 311° |
| 2026-05-06 16:29 | 35.46719 | -75.14653 | 35113 ft | 367 kts | 311° |
| 2026-05-06 16:29 | 35.50254 | -75.19188 | 35112 ft | 368 kts | 311° |
| 2026-05-06 16:30 | 35.53185 | -75.22973 | 35104 ft | 368 kts | 311° |
| 2026-05-06 16:30 | 35.57315 | -75.28298 | 35102 ft | 368 kts | 311° |
| 2026-05-06 16:31 | 35.60855 | -75.32855 | 35116 ft | 368 kts | 311° |
| 2026-05-06 16:31 | 35.64365 | -75.37376 | 35110 ft | 368 kts | 311° |
| 2026-05-06 16:32 | 35.67891 | -75.41921 | 35113 ft | 367 kts | 311° |
| 2026-05-06 16:32 | 35.71410 | -75.46474 | 35102 ft | 368 kts | 310° |
| 2026-05-06 16:33 | 35.74931 | -75.51045 | 35090 ft | 368 kts | 310° |
| 2026-05-06 16:34 | 35.80217 | -75.57930 | 35086 ft | 369 kts | 310° |
| 2026-05-06 16:34 | 35.83751 | -75.62526 | 35092 ft | 370 kts | 310° |
| 2026-05-06 16:35 | 35.87292 | -75.67135 | 35096 ft | 370 kts | 310° |
| 2026-05-06 16:35 | 35.90830 | -75.71740 | 35126 ft | 370 kts | 310° |
| 2026-05-06 16:36 | 35.94360 | -75.76342 | 35120 ft | 369 kts | 310° |
| 2026-05-06 16:36 | 35.97862 | -75.80910 | 35115 ft | 369 kts | 309° |
| 2026-05-06 16:37 | 36.01390 | -75.85520 | 35088 ft | 370 kts | 309° |
| 2026-05-06 16:37 | 36.04928 | -75.90145 | 35089 ft | 370 kts | 309° |
| 2026-05-06 16:38 | 36.08459 | -75.94776 | 35079 ft | 370 kts | 309° |
| 2026-05-06 16:38 | 36.11992 | -75.99415 | 35065 ft | 371 kts | 309° |
| 2026-05-06 16:39 | 36.15528 | -76.04059 | 35065 ft | 371 kts | 309° |
| 2026-05-06 16:39 | 36.19057 | -76.08712 | 35085 ft | 371 kts | 309° |
| 2026-05-06 16:40 | 36.22605 | -76.13336 | 35083 ft | 372 kts | 313° |
| 2026-05-06 16:40 | 36.24726 | -76.15217 | 35066 ft | 381 kts | 325° |
| 2026-05-06 16:40 | 36.27241 | -76.16416 | 35052 ft | 396 kts | 338° |
| 2026-05-06 16:40 | 36.30031 | -76.16816 | 35046 ft | 414 kts | 351° |
| 2026-05-06 16:41 | 36.32942 | -76.16472 | 35043 ft | 423 kts | 356° |
| 2026-05-06 16:41 | 36.38813 | -76.15553 | 35031 ft | 426 kts | 356° |
| 2026-05-06 16:42 | 36.44705 | -76.14632 | 35058 ft | 428 kts | 356° |
| 2026-05-06 16:42 | 36.50618 | -76.13700 | 35050 ft | 426 kts | 356° |
| 2026-05-06 16:43 | 36.56473 | -76.12773 | 35044 ft | 423 kts | 356° |
| 2026-05-06 16:43 | 36.62311 | -76.11867 | 35045 ft | 423 kts | 356° |
| 2026-05-06 16:44 | 36.68152 | -76.10963 | 35047 ft | 424 kts | 356° |
| 2026-05-06 16:44 | 36.74022 | -76.10052 | 35047 ft | 426 kts | 356° |
| 2026-05-06 16:45 | 36.79904 | -76.09137 | 35030 ft | 426 kts | 356° |
| 2026-05-06 16:45 | 36.85800 | -76.08209 | 35035 ft | 427 kts | 356° |
| 2026-05-06 16:46 | 36.91693 | -76.07279 | 35057 ft | 427 kts | 355° |
| 2026-05-06 16:46 | 36.97593 | -76.06343 | 35047 ft | 427 kts | 355° |
| 2026-05-06 16:47 | 37.03493 | -76.05412 | 35038 ft | 427 kts | 355° |
| 2026-05-06 16:47 | 37.09355 | -76.04487 | 35030 ft | 427 kts | 355° |
| 2026-05-06 16:48 | 37.15259 | -76.03563 | 35028 ft | 428 kts | 354° |
| 2026-05-06 16:48 | 37.21170 | -76.02630 | 35019 ft | 428 kts | 354° |
| 2026-05-06 16:49 | 37.27086 | -76.01687 | 35012 ft | 429 kts | 354° |
| 2026-05-06 16:49 | 37.33007 | -76.00744 | 35009 ft | 429 kts | 354° |
| 2026-05-06 16:50 | 37.38929 | -75.99808 | 35010 ft | 429 kts | 354° |
| 2026-05-06 16:50 | 37.44871 | -75.98866 | 34996 ft | 430 kts | 354° |
| 2026-05-06 16:51 | 37.50817 | -75.97925 | 34992 ft | 431 kts | 354° |
| 2026-05-06 16:51 | 37.56775 | -75.96963 | 34989 ft | 432 kts | 355° |
| 2026-05-06 16:51 | 37.59765 | -75.96145 | 34986 ft | 449 kts | 5° |
| 2026-05-06 16:52 | 37.62701 | -75.94571 | 34983 ft | 469 kts | 17° |
| 2026-05-06 16:52 | 37.68268 | -75.90009 | 35001 ft | 479 kts | 21° |
| 2026-05-06 16:53 | 37.73824 | -75.85368 | 35002 ft | 479 kts | 21° |
| 2026-05-06 16:53 | 37.79401 | -75.80751 | 35020 ft | 479 kts | 21° |
| 2026-05-06 16:53 | 37.82197 | -75.78438 | 35251 ft | 481 kts | 21° |
| 2026-05-06 16:54 | 37.84989 | -75.76116 | 35620 ft | 479 kts | 21° |
| 2026-05-06 16:54 | 37.87763 | -75.73798 | 36018 ft | 477 kts | 20° |
| 2026-05-06 16:54 | 37.90523 | -75.71487 | 36381 ft | 475 kts | 20° |
| 2026-05-06 16:54 | 37.93274 | -75.69185 | 36724 ft | 473 kts | 20° |
| 2026-05-06 16:55 | 37.96021 | -75.66892 | 36968 ft | 473 kts | 20° |
| 2026-05-06 16:55 | 38.01507 | -75.62314 | 37017 ft | 472 kts | 19° |
| 2026-05-06 16:56 | 38.06995 | -75.57729 | 36988 ft | 473 kts | 19° |
| 2026-05-06 16:56 | 38.12490 | -75.53119 | 36987 ft | 473 kts | 20° |
| 2026-05-06 16:57 | 38.17978 | -75.48503 | 36989 ft | 473 kts | 20° |
| 2026-05-06 16:57 | 38.23430 | -75.43911 | 37005 ft | 473 kts | 19° |
| 2026-05-06 16:57 | 38.26290 | -75.41895 | 36997 ft | 455 kts | 9° |
| 2026-05-06 16:58 | 38.29164 | -75.40566 | 37000 ft | 437 kts | 0° |
| 2026-05-06 16:58 | 38.32085 | -75.39807 | 37003 ft | 424 kts | 355° |
| 2026-05-06 16:58 | 38.34998 | -75.39198 | 37008 ft | 424 kts | 355° |
| 2026-05-06 16:59 | 38.40823 | -75.37976 | 37004 ft | 424 kts | 355° |
| 2026-05-06 16:59 | 38.46654 | -75.36746 | 37017 ft | 425 kts | 355° |
| 2026-05-06 17:00 | 38.52494 | -75.35509 | 36991 ft | 426 kts | 355° |
| 2026-05-06 17:00 | 38.58357 | -75.34256 | 36980 ft | 427 kts | 355° |
| 2026-05-06 17:01 | 38.64223 | -75.33002 | 36973 ft | 428 kts | 355° |
| 2026-05-06 17:01 | 38.70098 | -75.31750 | 36970 ft | 428 kts | 355° |
| 2026-05-06 17:02 | 38.75986 | -75.30386 | 36960 ft | 440 kts | 1° |
| 2026-05-06 17:02 | 38.78919 | -75.28991 | 36971 ft | 461 kts | 13° |
| 2026-05-06 17:02 | 38.81773 | -75.27010 | 36957 ft | 468 kts | 15° |
| 2026-05-06 17:03 | 38.87467 | -75.22936 | 36985 ft | 470 kts | 15° |
| 2026-05-06 17:03 | 38.93195 | -75.18837 | 36948 ft | 472 kts | 15° |
| 2026-05-06 17:04 | 38.98944 | -75.14743 | 36924 ft | 473 kts | 15° |
| 2026-05-06 17:04 | 39.04706 | -75.10634 | 36927 ft | 474 kts | 15° |
| 2026-05-06 17:05 | 39.09498 | -75.07211 | 36948 ft | 475 kts | 15° |
| 2026-05-06 17:05 | 39.15269 | -75.03079 | 36942 ft | 474 kts | 15° |
| 2026-05-06 17:06 | 39.21033 | -74.98936 | 36974 ft | 474 kts | 15° |
| 2026-05-06 17:06 | 39.27656 | -74.93896 | 36991 ft | 485 kts | 21° |
| 2026-05-06 17:07 | 39.32289 | -74.89694 | 36952 ft | 487 kts | 22° |
| 2026-05-06 17:07 | 39.37824 | -74.84645 | 36940 ft | 487 kts | 22° |
| 2026-05-06 17:08 | 39.43356 | -74.79590 | 36933 ft | 487 kts | 22° |
| 2026-05-06 17:08 | 39.48896 | -74.74538 | 36959 ft | 488 kts | 22° |
| 2026-05-06 17:09 | 39.54403 | -74.69495 | 36948 ft | 489 kts | 22° |
| 2026-05-06 17:09 | 39.59952 | -74.64396 | 36940 ft | 489 kts | 22° |
| 2026-05-06 17:10 | 39.65514 | -74.59279 | 36932 ft | 490 kts | 22° |
| 2026-05-06 17:10 | 39.71064 | -74.54157 | 36922 ft | 490 kts | 22° |
| 2026-05-06 17:11 | 39.76622 | -74.49023 | 36919 ft | 490 kts | 22° |
| 2026-05-06 17:11 | 39.82185 | -74.43891 | 36921 ft | 490 kts | 22° |
| 2026-05-06 17:12 | 39.87750 | -74.38741 | 36906 ft | 491 kts | 22° |
| 2026-05-06 17:12 | 39.93311 | -74.33567 | 36886 ft | 491 kts | 22° |
| 2026-05-06 17:13 | 39.98867 | -74.28388 | 36907 ft | 491 kts | 22° |
| 2026-05-06 17:13 | 40.04429 | -74.23205 | 36902 ft | 491 kts | 22° |
| 2026-05-06 17:14 | 40.09996 | -74.18012 | 36916 ft | 492 kts | 22° |
| 2026-05-06 17:14 | 40.15524 | -74.12831 | 36912 ft | 492 kts | 22° |
| 2026-05-06 17:15 | 40.21095 | -74.07605 | 36911 ft | 493 kts | 22° |
| 2026-05-06 17:15 | 40.26669 | -74.02362 | 36926 ft | 494 kts | 23° |
| 2026-05-06 17:16 | 40.32246 | -73.97097 | 36908 ft | 494 kts | 23° |
| 2026-05-06 17:16 | 40.35083 | -73.94650 | 36915 ft | 480 kts | 15° |
| 2026-05-06 17:16 | 40.38037 | -73.92743 | 36919 ft | 471 kts | 11° |
| 2026-05-06 17:17 | 40.43973 | -73.89096 | 36946 ft | 471 kts | 11° |
| 2026-05-06 17:17 | 40.49907 | -73.85450 | 36901 ft | 470 kts | 12° |
| 2026-05-06 17:18 | 40.55837 | -73.81777 | 36904 ft | 472 kts | 12° |
| 2026-05-06 17:18 | 40.61745 | -73.77920 | 36906 ft | 485 kts | 20° |
| 2026-05-06 17:18 | 40.64498 | -73.75223 | 36932 ft | 503 kts | 31° |
| 2026-05-06 17:19 | 40.66957 | -73.71852 | 36922 ft | 514 kts | 38° |
| 2026-05-06 17:19 | 40.71725 | -73.64813 | 36893 ft | 516 kts | 38° |
| 2026-05-06 17:20 | 40.76490 | -73.57827 | 36923 ft | 515 kts | 38° |
| 2026-05-06 17:20 | 40.81283 | -73.50802 | 36964 ft | 516 kts | 38° |
| 2026-05-06 17:21 | 40.86110 | -73.43712 | 36805 ft | 516 kts | 38° |
| 2026-05-06 17:21 | 40.88491 | -73.40188 | 36331 ft | 513 kts | 38° |
| 2026-05-06 17:21 | 40.90861 | -73.36679 | 35683 ft | 510 kts | 39° |
| 2026-05-06 17:21 | 40.93222 | -73.33184 | 34630 ft | 510 kts | 39° |
| 2026-05-06 17:22 | 40.95591 | -73.29679 | 33500 ft | 511 kts | 40° |
| 2026-05-06 17:22 | 40.97957 | -73.26174 | 32372 ft | 510 kts | 42° |
| 2026-05-06 17:22 | 41.00316 | -73.22673 | 31171 ft | 509 kts | 43° |
| 2026-05-06 17:22 | 41.02672 | -73.19168 | 29920 ft | 510 kts | 44° |
| 2026-05-06 17:23 | 41.05026 | -73.15658 | 28393 ft | 510 kts | 44° |
| 2026-05-06 17:23 | 41.07386 | -73.12142 | 27019 ft | 509 kts | 44° |
| 2026-05-06 17:23 | 41.09719 | -73.08659 | 26155 ft | 504 kts | 45° |
| 2026-05-06 17:23 | 41.12043 | -73.05185 | 25885 ft | 504 kts | 45° |
| 2026-05-06 17:24 | 41.14369 | -73.01712 | 25165 ft | 503 kts | 45° |
| 2026-05-06 17:24 | 41.16688 | -72.98248 | 24370 ft | 503 kts | 45° |
| 2026-05-06 17:24 | 41.19006 | -72.94777 | 23610 ft | 502 kts | 46° |
| 2026-05-06 17:24 | 41.21127 | -72.91102 | 23057 ft | 497 kts | 56° |
| 2026-05-06 17:25 | 41.22806 | -72.87130 | 22870 ft | 492 kts | 63° |
| 2026-05-06 17:25 | 41.24353 | -72.83082 | 22756 ft | 491 kts | 62° |
| 2026-05-06 17:25 | 41.25910 | -72.79045 | 22520 ft | 490 kts | 62° |
| 2026-05-06 17:25 | 41.27461 | -72.75025 | 22257 ft | 488 kts | 62° |
| 2026-05-06 17:26 | 41.29004 | -72.71014 | 21989 ft | 487 kts | 62° |
| 2026-05-06 17:26 | 41.30535 | -72.67012 | 21777 ft | 484 kts | 63° |
| 2026-05-06 17:26 | 41.32053 | -72.63025 | 21521 ft | 482 kts | 63° |
| 2026-05-06 17:26 | 41.33563 | -72.59050 | 21255 ft | 480 kts | 63° |
| 2026-05-06 17:27 | 41.35062 | -72.55096 | 21005 ft | 477 kts | 63° |
| 2026-05-06 17:27 | 41.36549 | -72.51162 | 20898 ft | 475 kts | 63° |
| 2026-05-06 17:27 | 41.38033 | -72.47233 | 20927 ft | 475 kts | 63° |
| 2026-05-06 17:27 | 41.39518 | -72.43307 | 20920 ft | 475 kts | 63° |
| 2026-05-06 17:28 | 41.40982 | -72.39424 | 20924 ft | 476 kts | 63° |
| 2026-05-06 17:28 | 41.42485 | -72.35433 | 20922 ft | 476 kts | 63° |
| 2026-05-06 17:28 | 41.43949 | -72.31546 | 20922 ft | 476 kts | 63° |
| 2026-05-06 17:28 | 41.45429 | -72.27600 | 20918 ft | 476 kts | 63° |
| 2026-05-06 17:29 | 41.46908 | -72.23654 | 20902 ft | 476 kts | 63° |
| 2026-05-06 17:29 | 41.48393 | -72.19703 | 20891 ft | 477 kts | 63° |
| 2026-05-06 17:29 | 41.49868 | -72.15740 | 20638 ft | 476 kts | 64° |
| 2026-05-06 17:29 | 41.51323 | -72.11774 | 20392 ft | 475 kts | 64° |
| 2026-05-06 17:30 | 41.52762 | -72.07812 | 20149 ft | 474 kts | 64° |
| 2026-05-06 17:30 | 41.54194 | -72.03857 | 19907 ft | 473 kts | 64° |
| 2026-05-06 17:30 | 41.55621 | -71.99908 | 19675 ft | 472 kts | 65° |
| 2026-05-06 17:30 | 41.56971 | -71.95920 | 19449 ft | 471 kts | 67° |
| 2026-05-06 17:31 | 41.58215 | -71.91882 | 19227 ft | 470 kts | 69° |
| 2026-05-06 17:31 | 41.59389 | -71.87823 | 18979 ft | 467 kts | 70° |
| 2026-05-06 17:31 | 41.60533 | -71.83765 | 18572 ft | 464 kts | 71° |
| 2026-05-06 17:31 | 41.61669 | -71.79742 | 18099 ft | 461 kts | 70° |
| 2026-05-06 17:32 | 41.62810 | -71.75753 | 17625 ft | 458 kts | 70° |
| 2026-05-06 17:32 | 41.63960 | -71.71802 | 17224 ft | 452 kts | 70° |
| 2026-05-06 17:32 | 41.65094 | -71.67960 | 17090 ft | 437 kts | 70° |
| 2026-05-06 17:32 | 41.66195 | -71.64247 | 16961 ft | 423 kts | 70° |
| 2026-05-06 17:33 | 41.67263 | -71.60652 | 16825 ft | 409 kts | 70° |
| 2026-05-06 17:33 | 41.68296 | -71.57162 | 16638 ft | 399 kts | 70° |
| 2026-05-06 17:33 | 41.69290 | -71.53778 | 16317 ft | 393 kts | 71° |
| 2026-05-06 17:33 | 41.70279 | -71.50393 | 15997 ft | 388 kts | 71° |
| 2026-05-06 17:34 | 41.71252 | -71.47045 | 15702 ft | 384 kts | 72° |
| 2026-05-06 17:34 | 41.72230 | -71.43726 | 15366 ft | 383 kts | 69° |
| 2026-05-06 17:34 | 41.73470 | -71.40572 | 15040 ft | 383 kts | 62° |
| 2026-05-06 17:34 | 41.74787 | -71.37485 | 14717 ft | 381 kts | 62° |
| 2026-05-06 17:35 | 41.76101 | -71.34413 | 14395 ft | 379 kts | 62° |
| 2026-05-06 17:35 | 41.77412 | -71.31353 | 14069 ft | 378 kts | 62° |
| 2026-05-06 17:35 | 41.78720 | -71.28300 | 13752 ft | 376 kts | 62° |
| 2026-05-06 17:36 | 41.81312 | -71.22244 | 13103 ft | 373 kts | 63° |
| 2026-05-06 17:36 | 41.82596 | -71.19237 | 12792 ft | 371 kts | 63° |
| 2026-05-06 17:36 | 41.83870 | -71.16242 | 12492 ft | 368 kts | 63° |
| 2026-05-06 17:36 | 41.85123 | -71.13290 | 12294 ft | 361 kts | 63° |
| 2026-05-06 17:37 | 41.86362 | -71.10366 | 11971 ft | 360 kts | 63° |
| 2026-05-06 17:37 | 41.87602 | -71.07478 | 11811 ft | 356 kts | 63° |
| 2026-05-06 17:37 | 41.88841 | -71.04610 | 11647 ft | 355 kts | 63° |
| 2026-05-06 17:37 | 41.90079 | -71.01750 | 11490 ft | 354 kts | 63° |
| 2026-05-06 17:38 | 41.91311 | -70.98896 | 11328 ft | 353 kts | 63° |
| 2026-05-06 17:38 | 41.92544 | -70.96047 | 11171 ft | 353 kts | 63° |
| 2026-05-06 17:38 | 41.93778 | -70.93201 | 11014 ft | 352 kts | 63° |
| 2026-05-06 17:38 | 41.95004 | -70.90361 | 10860 ft | 351 kts | 64° |
| 2026-05-06 17:39 | 41.96225 | -70.87522 | 10669 ft | 351 kts | 64° |
| 2026-05-06 17:39 | 41.97441 | -70.84687 | 10549 ft | 350 kts | 65° |
| 2026-05-06 17:39 | 41.98656 | -70.81855 | 10387 ft | 349 kts | 64° |
| 2026-05-06 17:39 | 41.99867 | -70.79032 | 10254 ft | 349 kts | 65° |
| 2026-05-06 17:40 | 42.01140 | -70.76250 | 10085 ft | 351 kts | 57° |
| 2026-05-06 17:40 | 42.02735 | -70.73731 | 9693 ft | 355 kts | 50° |
| 2026-05-06 17:40 | 42.04391 | -70.71263 | 9336 ft | 354 kts | 50° |
| 2026-05-06 17:40 | 42.06037 | -70.68808 | 9006 ft | 353 kts | 50° |
| 2026-05-06 17:41 | 42.07674 | -70.66368 | 8712 ft | 349 kts | 50° |
| 2026-05-06 17:41 | 42.09331 | -70.63995 | 8377 ft | 348 kts | 43° |
| 2026-05-06 17:41 | 42.11290 | -70.62103 | 8065 ft | 345 kts | 27° |
| 2026-05-06 17:41 | 42.13491 | -70.60885 | 7749 ft | 339 kts | 11° |
| 2026-05-06 17:42 | 42.15778 | -70.60218 | 7407 ft | 335 kts | 6° |
| 2026-05-06 17:42 | 42.18049 | -70.59596 | 7136 ft | 332 kts | 6° |
| 2026-05-06 17:42 | 42.20309 | -70.58974 | 6873 ft | 330 kts | 7° |
| 2026-05-06 17:42 | 42.22559 | -70.58351 | 6544 ft | 329 kts | 7° |
| 2026-05-06 17:43 | 42.24784 | -70.57727 | 6277 ft | 325 kts | 7° |
| 2026-05-06 17:43 | 42.26995 | -70.57103 | 5925 ft | 324 kts | 7° |
| 2026-05-06 17:43 | 42.29213 | -70.56514 | 5584 ft | 321 kts | 1° |
| 2026-05-06 17:43 | 42.31394 | -70.56549 | 5209 ft | 310 kts | 342° |
| 2026-05-06 17:44 | 42.33390 | -70.57398 | 5035 ft | 291 kts | 324° |
| 2026-05-06 17:44 | 42.35055 | -70.58825 | 5040 ft | 278 kts | 309° |
| 2026-05-06 17:44 | 42.36444 | -70.60601 | 5052 ft | 274 kts | 304° |
| 2026-05-06 17:44 | 42.37805 | -70.62388 | 5023 ft | 272 kts | 304° |
| 2026-05-06 17:45 | 42.39163 | -70.64171 | 5023 ft | 272 kts | 304° |
| 2026-05-06 17:45 | 42.40522 | -70.65950 | 5018 ft | 272 kts | 304° |
| 2026-05-06 17:45 | 42.41879 | -70.67729 | 5015 ft | 272 kts | 304° |
| 2026-05-06 17:45 | 42.43236 | -70.69511 | 5014 ft | 272 kts | 305° |
| 2026-05-06 17:46 | 42.44596 | -70.71298 | 5014 ft | 272 kts | 305° |
| 2026-05-06 17:46 | 42.45950 | -70.73081 | 5013 ft | 271 kts | 305° |
| 2026-05-06 17:46 | 42.47303 | -70.74863 | 5007 ft | 271 kts | 305° |
| 2026-05-06 17:46 | 42.48656 | -70.76646 | 5008 ft | 272 kts | 305° |
| 2026-05-06 17:47 | 42.49989 | -70.78404 | 5006 ft | 268 kts | 305° |
| 2026-05-06 17:47 | 42.51317 | -70.80085 | 5001 ft | 258 kts | 311° |
| 2026-05-06 17:47 | 42.52955 | -70.81125 | 5007 ft | 269 kts | 340° |
| 2026-05-06 17:47 | 42.54861 | -70.81027 | 5007 ft | 284 kts | 12° |
| 2026-05-06 17:48 | 42.56716 | -70.80153 | 5004 ft | 277 kts | 15° |
| 2026-05-06 17:48 | 42.58512 | -70.79264 | 5006 ft | 275 kts | 16° |
| 2026-05-06 17:48 | 42.60315 | -70.78360 | 5011 ft | 278 kts | 15° |
| 2026-05-06 17:48 | 42.62129 | -70.77436 | 5005 ft | 279 kts | 15° |
| 2026-05-06 17:49 | 42.63963 | -70.76598 | 5001 ft | 274 kts | 1° |
| 2026-05-06 17:49 | 42.65769 | -70.76732 | 5005 ft | 250 kts | 328° |
| 2026-05-06 17:49 | 42.67128 | -70.77917 | 5005 ft | 220 kts | 296° |
| 2026-05-06 17:49 | 42.67772 | -70.79653 | 5005 ft | 191 kts | 264° |
| 2026-05-06 17:50 | 42.67637 | -70.81368 | 5007 ft | 181 kts | 248° |
| 2026-05-06 17:50 | 42.67302 | -70.83012 | 5008 ft | 180 kts | 246° |
| 2026-05-06 17:50 | 42.66880 | -70.84575 | 5005 ft | 176 kts | 236° |
| 2026-05-06 17:50 | 42.66111 | -70.85832 | 5003 ft | 170 kts | 219° |
| 2026-05-06 17:51 | 42.65118 | -70.86584 | 5002 ft | 159 kts | 205° |
| 2026-05-06 17:51 | 42.64087 | -70.87084 | 5003 ft | 156 kts | 205° |
| 2026-05-06 17:51 | 42.63063 | -70.87585 | 5005 ft | 156 kts | 205° |
| 2026-05-06 17:51 | 42.62040 | -70.88085 | 4997 ft | 156 kts | 205° |
| 2026-05-06 17:52 | 42.61010 | -70.88589 | 4862 ft | 158 kts | 205° |
| 2026-05-06 17:52 | 42.59974 | -70.89095 | 4671 ft | 158 kts | 206° |
| 2026-05-06 17:52 | 42.58953 | -70.89592 | 4484 ft | 153 kts | 206° |
| 2026-05-06 17:52 | 42.57964 | -70.90074 | 4263 ft | 150 kts | 206° |
| 2026-05-06 17:53 | 42.56996 | -70.90546 | 4069 ft | 146 kts | 206° |
| 2026-05-06 17:53 | 42.56080 | -70.90991 | 3884 ft | 135 kts | 206° |
| 2026-05-06 17:53 | 42.55196 | -70.91423 | 3700 ft | 136 kts | 206° |
| 2026-05-06 17:53 | 42.54287 | -70.91868 | 3522 ft | 142 kts | 205° |
| 2026-05-06 17:54 | 42.53343 | -70.92328 | 3336 ft | 145 kts | 203° |
| 2026-05-06 17:54 | 42.52392 | -70.92790 | 3144 ft | 146 kts | 203° |
| 2026-05-06 17:54 | 42.51435 | -70.93256 | 2951 ft | 146 kts | 203° |
| 2026-05-06 17:54 | 42.50471 | -70.93725 | 2754 ft | 149 kts | 202° |
| 2026-05-06 17:55 | 42.49496 | -70.94199 | 2554 ft | 149 kts | 201° |
| 2026-05-06 17:55 | 42.48516 | -70.94675 | 2369 ft | 149 kts | 200° |
| 2026-05-06 17:55 | 42.47879 | -70.94985 | 2252 ft | 145 kts | 201° |
| 2026-05-06 17:55 | 42.46591 | -70.95609 | 1966 ft | 148 kts | 202° |
| 2026-05-06 17:56 | 42.45957 | -70.95917 | 1824 ft | 141 kts | 201° |
| 2026-05-06 17:56 | 42.45070 | -70.96348 | 1649 ft | 133 kts | 201° |
| 2026-05-06 17:56 | 42.44217 | -70.96767 | 1461 ft | 129 kts | 200° |
| 2026-05-06 17:56 | 42.43382 | -70.97174 | 1304 ft | 128 kts | 200° |
| 2026-05-06 17:57 | 42.42536 | -70.97585 | 1119 ft | 129 kts | 199° |
| 2026-05-06 17:57 | 42.41698 | -70.97990 | 953 ft | 131 kts | 201° |
| 2026-05-06 17:57 | 42.40841 | -70.98405 | 776 ft | 130 kts | 199° |
| 2026-05-06 17:57 | 42.39997 | -70.98816 | 597 ft | 127 kts | 199° |
| 2026-05-06 17:58 | 42.39163 | -70.99212 | 427 ft | 128 kts | 200° |
| 2026-05-06 17:58 | 42.38341 | -70.99620 | 252 ft | 128 kts | 200° |
| 2026-05-06 17:58 | 42.37502 | -71.00037 | 93 ft | 128 kts | 198° |
| 2026-05-06 17:58 | 42.36693 | -71.00421 | 31 ft | 111 kts | 197° |
| 2026-05-06 17:59 | 42.36111 | -71.00696 | 26 ft | 64 kts | 200° |
| 2026-05-06 17:59 | 42.35853 | -71.00822 | 28 ft | 15 kts | 199° |
| 2026-05-06 17:59 | 42.35811 | -71.00874 | 25 ft | 6 kts | 282° |
| 2026-05-06 17:59 | 42.35815 | -71.00949 | 25 ft | 10 kts | 274° |
| 2026-05-06 18:00 | 42.35820 | -71.01029 | 25 ft | 8 kts | 277° |
| 2026-05-06 18:00 | 42.35829 | -71.01111 | 25 ft | 10 kts | 278° |
| 2026-05-06 18:00 | 42.35840 | -71.01202 | 25 ft | 6 kts | 280° |
| 2026-05-06 18:00 | 42.35848 | -71.01264 | 30 ft | 0 kts | 279° |
| 2026-05-06 18:02 | 42.35850 | -71.01282 | 27 ft | 9 kts | 278° |
| 2026-05-06 18:02 | 42.35863 | -71.01404 | 29 ft | 15 kts | 278° |
| 2026-05-06 18:03 | 42.35880 | -71.01531 | 27 ft | 12 kts | 281° |
| 2026-05-06 18:03 | 42.35911 | -71.01624 | 25 ft | 8 kts | 353° |
| 2026-05-06 18:03 | 42.35949 | -71.01615 | 28 ft | 8 kts | 9° |
| 2026-05-06 18:03 | 42.36012 | -71.01588 | 27 ft | 11 kts | 21° |
| 2026-05-06 18:04 | 42.36090 | -71.01551 | 28 ft | 13 kts | 19° |
| 2026-05-06 18:04 | 42.36186 | -71.01504 | 28 ft | 16 kts | 20° |
| 2026-05-06 18:04 | 42.36294 | -71.01452 | 27 ft | 17 kts | 20° |
| 2026-05-06 18:04 | 42.36406 | -71.01397 | 26 ft | 17 kts | 19° |
| 2026-05-06 18:05 | 42.36519 | -71.01335 | 27 ft | 18 kts | 27° |
| 2026-05-06 18:05 | 42.36631 | -71.01272 | 26 ft | 15 kts | 16° |
| 2026-05-06 18:05 | 42.36722 | -71.01242 | 27 ft | 12 kts | 11° |
| 2026-05-06 18:05 | 42.36797 | -71.01280 | 26 ft | 12 kts | 315° |
| 2026-05-06 18:06 | 42.36846 | -71.01344 | 30 ft | 8 kts | 315° |
| 2026-05-06 18:06 | 42.36861 | -71.01378 | 27 ft | 3 kts | 280° |
| 2026-05-06 18:06 | 42.36854 | -71.01408 | 29 ft | 4 kts | 249° |
| 2026-05-06 18:06 | 42.36845 | -71.01438 | 26 ft | 2 kts | 248° |
| 2026-05-06 18:07 | 42.36839 | -71.01457 | 31 ft | 1 kts | 248° |
| 2026-05-06 18:07 | 42.36837 | -71.01467 | 30 ft | 0 kts | 248° |